Abraham, Utah
Current Conditions -  °F | °C
As of 4:15 AM on Saturday 25 Oct 2014 (Local Time) from KDTA Reporting Station
Clear Clear  
Wind Chill: 55°   Ceiling: Unl
Heat Index: 55°   Visibility: 10mi
Dew Point: 30°   Wind: 13mph
Humidity: 39%   Direction: 170°S
Pressure: 30.14"   Gusts: NA
Location:  39.4463°N, 112.85°W
Report Text: KDTA 251015Z AUTO 17011KT 10SM CLR 13/M01 A3014 RMK AO1 T01261011
Loading
Personal Weather Stations






























Interactive Weather Map
Tropical Storm Tracking
New forecast layout! Learn more

10-Day Weather Forecast

Advertisements
Track Severe Weather on mobile